sensor_id;sensor_type;location;lat;lon;timestamp;P1;durP1;ratioP1;P2;durP2;ratioP2
37791;SDS011;29527;55.766;37.570;2022-09-21T00:01:02;28.00;;;15.98;;
37791;SDS011;29527;55.766;37.570;2022-09-21T00:03:35;21.77;;;14.88;;
37791;SDS011;29527;55.766;37.570;2022-09-21T00:06:02;26.33;;;16.08;;
37791;SDS011;29527;55.766;37.570;2022-09-21T00:08:29;22.75;;;16.17;;
37791;SDS011;29527;55.766;37.570;2022-09-21T00:10:54;28.50;;;16.77;;
37791;SDS011;29527;55.766;37.570;2022-09-21T00:13:20;32.63;;;17.40;;
37791;SDS011;29527;55.766;37.570;2022-09-21T00:15:45;27.70;;;16.88;;
37791;SDS011;29527;55.766;37.570;2022-09-21T00:18:11;27.83;;;16.63;;
37791;SDS011;29527;55.766;37.570;2022-09-21T00:20:39;28.45;;;15.77;;
37791;SDS011;29527;55.766;37.570;2022-09-21T00:23:08;30.75;;;17.15;;
37791;SDS011;29527;55.766;37.570;2022-09-21T00:25:34;27.08;;;15.73;;
37791;SDS011;29527;55.766;37.570;2022-09-21T00:28:00;24.08;;;15.50;;
37791;SDS011;29527;55.766;37.570;2022-09-21T00:30:25;23.50;;;15.35;;
37791;SDS011;29527;55.766;37.570;2022-09-21T00:32:51;23.15;;;15.55;;
37791;SDS011;29527;55.766;37.570;2022-09-21T00:35:18;24.13;;;15.38;;
37791;SDS011;29527;55.766;37.570;2022-09-21T00:37:44;28.33;;;16.17;;
37791;SDS011;29527;55.766;37.570;2022-09-21T00:40:09;27.58;;;16.05;;
37791;SDS011;29527;55.766;37.570;2022-09-21T00:42:36;22.05;;;15.48;;
37791;SDS011;29527;55.766;37.570;2022-09-21T00:45:03;22.52;;;15.13;;
37791;SDS011;29527;55.766;37.570;2022-09-21T00:47:41;22.55;;;15.40;;
37791;SDS011;29527;55.766;37.570;2022-09-21T00:50:11;25.60;;;15.90;;
37791;SDS011;29527;55.766;37.570;2022-09-21T00:52:41;27.02;;;16.15;;
37791;SDS011;29527;55.766;37.570;2022-09-21T00:55:15;21.88;;;15.10;;
37791;SDS011;29527;55.766;37.570;2022-09-21T00:57:46;26.23;;;15.55;;
37791;SDS011;29527;55.766;37.570;2022-09-21T01:00:15;27.48;;;15.30;;
37791;SDS011;29527;55.766;37.570;2022-09-21T01:02:40;24.48;;;15.27;;
37791;SDS011;29527;55.766;37.570;2022-09-21T01:05:07;27.20;;;15.52;;
37791;SDS011;29527;55.766;37.570;2022-09-21T01:07:34;26.25;;;15.50;;
37791;SDS011;29527;55.766;37.570;2022-09-21T01:10:06;26.60;;;15.60;;
37791;SDS011;29527;55.766;37.570;2022-09-21T01:15:14;26.55;;;16.00;;
37791;SDS011;29527;55.766;37.570;2022-09-21T01:31:38;23.17;;;14.48;;
37791;SDS011;29527;55.766;37.570;2022-09-21T01:34:11;26.63;;;14.57;;
37791;SDS011;29527;55.766;37.570;2022-09-21T01:36:43;23.23;;;13.95;;
37791;SDS011;29527;55.766;37.570;2022-09-21T01:39:14;26.35;;;15.23;;
37791;SDS011;29527;55.766;37.570;2022-09-21T01:41:43;23.20;;;14.65;;
37791;SDS011;29527;55.766;37.570;2022-09-21T01:44:14;24.38;;;14.98;;
37791;SDS011;29527;55.766;37.570;2022-09-21T01:46:45;28.25;;;15.38;;
37791;SDS011;29527;55.766;37.570;2022-09-21T01:49:12;27.02;;;14.73;;
37791;SDS011;29527;55.766;37.570;2022-09-21T01:51:43;22.23;;;13.98;;
37791;SDS011;29527;55.766;37.570;2022-09-21T01:54:19;22.25;;;13.85;;
37791;SDS011;29527;55.766;37.570;2022-09-21T01:59:48;27.13;;;13.88;;
37791;SDS011;29527;55.766;37.570;2022-09-21T02:02:21;29.08;;;14.88;;
37791;SDS011;29527;55.766;37.570;2022-09-21T02:04:57;24.05;;;14.57;;
37791;SDS011;29527;55.766;37.570;2022-09-21T02:07:25;24.55;;;14.82;;
37791;SDS011;29527;55.766;37.570;2022-09-21T02:09:52;24.35;;;16.13;;
37791;SDS011;29527;55.766;37.570;2022-09-21T02:12:19;28.33;;;17.05;;
37791;SDS011;29527;55.766;37.570;2022-09-21T02:14:45;25.65;;;16.42;;
37791;SDS011;29527;55.766;37.570;2022-09-21T02:17:18;23.52;;;15.57;;
37791;SDS011;29527;55.766;37.570;2022-09-21T02:25:14;31.23;;;17.65;;
37791;SDS011;29527;55.766;37.570;2022-09-21T02:27:49;27.52;;;17.38;;
37791;SDS011;29527;55.766;37.570;2022-09-21T02:30:19;27.17;;;17.38;;
37791;SDS011;29527;55.766;37.570;2022-09-21T02:37:50;25.38;;;17.05;;
37791;SDS011;29527;55.766;37.570;2022-09-21T02:40:22;28.73;;;17.15;;
37791;SDS011;29527;55.766;37.570;2022-09-21T02:42:53;23.88;;;16.63;;
37791;SDS011;29527;55.766;37.570;2022-09-21T02:45:24;27.75;;;17.00;;
37791;SDS011;29527;55.766;37.570;2022-09-21T02:47:56;28.92;;;17.00;;
37791;SDS011;29527;55.766;37.570;2022-09-21T02:50:26;27.33;;;16.30;;
37791;SDS011;29527;55.766;37.570;2022-09-21T02:52:57;28.83;;;16.10;;
37791;SDS011;29527;55.766;37.570;2022-09-21T02:55:26;28.17;;;17.10;;
37791;SDS011;29527;55.766;37.570;2022-09-21T02:57:52;32.13;;;16.45;;
37791;SDS011;29527;55.766;37.570;2022-09-21T03:00:19;22.58;;;15.95;;
37791;SDS011;29527;55.766;37.570;2022-09-21T03:02:45;23.10;;;15.27;;
37791;SDS011;29527;55.766;37.570;2022-09-21T03:05:11;24.15;;;16.00;;
37791;SDS011;29527;55.766;37.570;2022-09-21T03:07:38;28.35;;;15.60;;
37791;SDS011;29527;55.766;37.570;2022-09-21T03:10:04;25.48;;;15.45;;
37791;SDS011;29527;55.766;37.570;2022-09-21T03:12:32;27.63;;;14.85;;
37791;SDS011;29527;55.766;37.570;2022-09-21T03:14:58;26.63;;;15.30;;
37791;SDS011;29527;55.766;37.570;2022-09-21T03:17:24;22.00;;;15.18;;
37791;SDS011;29527;55.766;37.570;2022-09-21T03:19:50;22.35;;;14.68;;
37791;SDS011;29527;55.766;37.570;2022-09-21T03:22:19;22.10;;;14.02;;
37791;SDS011;29527;55.766;37.570;2022-09-21T03:24:48;23.02;;;14.90;;
37791;SDS011;29527;55.766;37.570;2022-09-21T03:27:18;24.35;;;14.10;;
37791;SDS011;29527;55.766;37.570;2022-09-21T03:29:45;23.20;;;13.73;;
37791;SDS011;29527;55.766;37.570;2022-09-21T03:32:11;18.27;;;13.25;;
37791;SDS011;29527;55.766;37.570;2022-09-21T03:34:38;24.50;;;13.88;;
37791;SDS011;29527;55.766;37.570;2022-09-21T03:37:04;22.60;;;13.07;;
37791;SDS011;29527;55.766;37.570;2022-09-21T03:39:31;24.70;;;13.93;;
37791;SDS011;29527;55.766;37.570;2022-09-21T03:41:57;22.48;;;13.30;;
37791;SDS011;29527;55.766;37.570;2022-09-21T03:44:23;19.00;;;12.80;;
37791;SDS011;29527;55.766;37.570;2022-09-21T03:46:49;21.98;;;12.88;;
37791;SDS011;29527;55.766;37.570;2022-09-21T03:49:16;25.08;;;11.90;;
37791;SDS011;29527;55.766;37.570;2022-09-21T03:51:42;19.75;;;12.07;;
37791;SDS011;29527;55.766;37.570;2022-09-21T03:54:08;23.13;;;13.02;;
37791;SDS011;29527;55.766;37.570;2022-09-21T03:56:34;23.15;;;11.57;;
37791;SDS011;29527;55.766;37.570;2022-09-21T03:58:59;26.58;;;12.05;;
37791;SDS011;29527;55.766;37.570;2022-09-21T04:01:25;21.65;;;12.38;;
37791;SDS011;29527;55.766;37.570;2022-09-21T04:03:50;24.67;;;12.20;;
37791;SDS011;29527;55.766;37.570;2022-09-21T04:06:16;24.70;;;12.02;;
37791;SDS011;29527;55.766;37.570;2022-09-21T04:08:42;23.92;;;12.23;;
37791;SDS011;29527;55.766;37.570;2022-09-21T04:11:08;21.70;;;11.98;;
37791;SDS011;29527;55.766;37.570;2022-09-21T04:13:38;25.33;;;12.68;;
37791;SDS011;29527;55.766;37.570;2022-09-21T04:16:03;24.27;;;12.98;;
37791;SDS011;29527;55.766;37.570;2022-09-21T04:18:29;27.75;;;13.27;;
37791;SDS011;29527;55.766;37.570;2022-09-21T04:20:55;22.25;;;13.68;;
37791;SDS011;29527;55.766;37.570;2022-09-21T04:23:20;28.77;;;13.55;;
37791;SDS011;29527;55.766;37.570;2022-09-21T04:25:50;20.58;;;13.30;;
37791;SDS011;29527;55.766;37.570;2022-09-21T04:28:15;30.02;;;13.38;;
37791;SDS011;29527;55.766;37.570;2022-09-21T04:30:41;25.30;;;12.75;;
37791;SDS011;29527;55.766;37.570;2022-09-21T04:33:07;27.80;;;12.90;;
37791;SDS011;29527;55.766;37.570;2022-09-21T04:35:32;17.70;;;10.95;;
37791;SDS011;29527;55.766;37.570;2022-09-21T04:37:58;22.42;;;10.85;;
37791;SDS011;29527;55.766;37.570;2022-09-21T04:40:23;23.98;;;10.23;;
37791;SDS011;29527;55.766;37.570;2022-09-21T04:42:50;20.08;;;10.05;;
37791;SDS011;29527;55.766;37.570;2022-09-21T04:45:21;16.77;;;9.80;;
37791;SDS011;29527;55.766;37.570;2022-09-21T04:47:47;18.33;;;9.23;;
37791;SDS011;29527;55.766;37.570;2022-09-21T04:50:13;18.42;;;9.90;;
37791;SDS011;29527;55.766;37.570;2022-09-21T04:52:39;17.88;;;9.40;;
37791;SDS011;29527;55.766;37.570;2022-09-21T04:55:05;16.58;;;9.32;;
37791;SDS011;29527;55.766;37.570;2022-09-21T04:57:31;15.05;;;8.57;;
37791;SDS011;29527;55.766;37.570;2022-09-21T04:59:57;17.60;;;8.65;;
37791;SDS011;29527;55.766;37.570;2022-09-21T05:02:22;14.63;;;8.77;;
37791;SDS011;29527;55.766;37.570;2022-09-21T05:04:48;13.85;;;8.32;;
37791;SDS011;29527;55.766;37.570;2022-09-21T05:07:14;12.95;;;9.32;;
37791;SDS011;29527;55.766;37.570;2022-09-21T05:09:39;17.95;;;9.63;;
37791;SDS011;29527;55.766;37.570;2022-09-21T05:12:24;16.02;;;9.15;;
37791;SDS011;29527;55.766;37.570;2022-09-21T05:14:49;14.70;;;9.77;;
37791;SDS011;29527;55.766;37.570;2022-09-21T05:17:14;15.98;;;9.60;;
37791;SDS011;29527;55.766;37.570;2022-09-21T05:19:40;16.20;;;9.07;;
37791;SDS011;29527;55.766;37.570;2022-09-21T05:22:06;16.35;;;9.00;;
37791;SDS011;29527;55.766;37.570;2022-09-21T05:24:31;13.63;;;9.02;;
37791;SDS011;29527;55.766;37.570;2022-09-21T05:26:57;11.98;;;8.85;;
37791;SDS011;29527;55.766;37.570;2022-09-21T05:29:23;16.75;;;9.60;;
37791;SDS011;29527;55.766;37.570;2022-09-21T05:31:56;12.80;;;8.75;;
37791;SDS011;29527;55.766;37.570;2022-09-21T05:34:52;11.57;;;8.43;;
37791;SDS011;29527;55.766;37.570;2022-09-21T05:40:05;15.95;;;9.55;;
37791;SDS011;29527;55.766;37.570;2022-09-21T05:42:33;16.38;;;8.60;;
37791;SDS011;29527;55.766;37.570;2022-09-21T05:44:59;15.80;;;8.80;;
37791;SDS011;29527;55.766;37.570;2022-09-21T05:50:22;11.85;;;7.80;;
37791;SDS011;29527;55.766;37.570;2022-09-21T05:56:02;16.13;;;7.90;;
37791;SDS011;29527;55.766;37.570;2022-09-21T06:03:35;10.63;;;6.72;;
37791;SDS011;29527;55.766;37.570;2022-09-21T06:06:02;14.63;;;7.05;;
37791;SDS011;29527;55.766;37.570;2022-09-21T06:08:27;12.02;;;6.63;;
37791;SDS011;29527;55.766;37.570;2022-09-21T06:10:53;11.68;;;7.25;;
37791;SDS011;29527;55.766;37.570;2022-09-21T06:13:19;12.40;;;7.22;;
37791;SDS011;29527;55.766;37.570;2022-09-21T06:15:45;11.95;;;6.90;;
37791;SDS011;29527;55.766;37.570;2022-09-21T06:18:10;10.82;;;7.60;;
37791;SDS011;29527;55.766;37.570;2022-09-21T06:20:36;10.45;;;7.70;;
37791;SDS011;29527;55.766;37.570;2022-09-21T06:23:02;12.45;;;7.07;;
37791;SDS011;29527;55.766;37.570;2022-09-21T06:25:30;10.93;;;7.80;;
37791;SDS011;29527;55.766;37.570;2022-09-21T06:28:00;11.20;;;7.90;;
37791;SDS011;29527;55.766;37.570;2022-09-21T06:30:31;12.48;;;8.13;;
37791;SDS011;29527;55.766;37.570;2022-09-21T06:33:00;13.85;;;8.00;;
37791;SDS011;29527;55.766;37.570;2022-09-21T06:35:27;12.63;;;7.72;;
37791;SDS011;29527;55.766;37.570;2022-09-21T06:38:03;13.20;;;8.10;;
37791;SDS011;29527;55.766;37.570;2022-09-21T06:40:31;11.82;;;7.95;;
37791;SDS011;29527;55.766;37.570;2022-09-21T06:42:58;13.27;;;8.90;;
37791;SDS011;29527;55.766;37.570;2022-09-21T06:45:25;11.65;;;7.95;;
37791;SDS011;29527;55.766;37.570;2022-09-21T06:47:51;14.00;;;8.70;;
37791;SDS011;29527;55.766;37.570;2022-09-21T06:50:17;13.80;;;8.75;;
37791;SDS011;29527;55.766;37.570;2022-09-21T06:52:44;16.10;;;8.60;;
37791;SDS011;29527;55.766;37.570;2022-09-21T06:55:10;10.63;;;9.00;;
37791;SDS011;29527;55.766;37.570;2022-09-21T06:57:36;11.05;;;8.05;;
37791;SDS011;29527;55.766;37.570;2022-09-21T07:00:05;11.32;;;8.00;;
37791;SDS011;29527;55.766;37.570;2022-09-21T07:02:33;12.45;;;7.97;;
37791;SDS011;29527;55.766;37.570;2022-09-21T07:04:59;10.48;;;7.90;;
37791;SDS011;29527;55.766;37.570;2022-09-21T07:07:24;10.95;;;8.05;;
37791;SDS011;29527;55.766;37.570;2022-09-21T07:09:50;10.52;;;6.97;;
37791;SDS011;29527;55.766;37.570;2022-09-21T07:12:16;16.08;;;7.63;;
37791;SDS011;29527;55.766;37.570;2022-09-21T07:14:42;13.55;;;7.75;;
37791;SDS011;29527;55.766;37.570;2022-09-21T07:17:10;12.48;;;7.82;;
37791;SDS011;29527;55.766;37.570;2022-09-21T07:19:37;9.82;;;7.95;;
37791;SDS011;29527;55.766;37.570;2022-09-21T07:22:03;10.63;;;7.50;;
37791;SDS011;29527;55.766;37.570;2022-09-21T07:24:28;11.07;;;8.20;;
37791;SDS011;29527;55.766;37.570;2022-09-21T07:26:54;10.13;;;7.97;;
37791;SDS011;29527;55.766;37.570;2022-09-21T07:29:19;10.88;;;7.00;;
37791;SDS011;29527;55.766;37.570;2022-09-21T07:31:45;19.38;;;7.60;;
37791;SDS011;29527;55.766;37.570;2022-09-21T07:34:12;11.70;;;8.15;;
37791;SDS011;29527;55.766;37.570;2022-09-21T07:36:38;13.27;;;8.27;;
37791;SDS011;29527;55.766;37.570;2022-09-21T07:39:03;12.45;;;8.60;;
37791;SDS011;29527;55.766;37.570;2022-09-21T07:41:29;10.75;;;7.60;;
37791;SDS011;29527;55.766;37.570;2022-09-21T07:43:54;11.93;;;7.93;;
37791;SDS011;29527;55.766;37.570;2022-09-21T07:46:20;15.05;;;8.07;;
37791;SDS011;29527;55.766;37.570;2022-09-21T07:48:45;15.38;;;8.18;;
37791;SDS011;29527;55.766;37.570;2022-09-21T07:51:12;23.08;;;8.38;;
37791;SDS011;29527;55.766;37.570;2022-09-21T07:53:40;6.97;;;5.20;;
37791;SDS011;29527;55.766;37.570;2022-09-21T07:56:12;7.28;;;5.68;;
37791;SDS011;29527;55.766;37.570;2022-09-21T07:58:40;7.30;;;5.68;;
37791;SDS011;29527;55.766;37.570;2022-09-21T08:01:24;12.30;;;5.95;;
37791;SDS011;29527;55.766;37.570;2022-09-21T08:03:51;9.02;;;5.97;;
37791;SDS011;29527;55.766;37.570;2022-09-21T08:06:18;8.35;;;5.95;;
37791;SDS011;29527;55.766;37.570;2022-09-21T08:08:45;6.53;;;4.07;;
37791;SDS011;29527;55.766;37.570;2022-09-21T08:11:13;12.30;;;5.80;;
37791;SDS011;29527;55.766;37.570;2022-09-21T08:13:39;10.23;;;5.25;;
37791;SDS011;29527;55.766;37.570;2022-09-21T08:16:05;10.57;;;5.30;;
37791;SDS011;29527;55.766;37.570;2022-09-21T08:18:31;7.53;;;5.43;;
37791;SDS011;29527;55.766;37.570;2022-09-21T08:21:00;10.02;;;6.22;;
37791;SDS011;29527;55.766;37.570;2022-09-21T08:23:25;10.50;;;6.47;;
37791;SDS011;29527;55.766;37.570;2022-09-21T08:25:59;13.57;;;6.80;;
37791;SDS011;29527;55.766;37.570;2022-09-21T08:28:30;13.85;;;6.25;;
37791;SDS011;29527;55.766;37.570;2022-09-21T08:30:59;12.88;;;7.00;;
37791;SDS011;29527;55.766;37.570;2022-09-21T08:33:26;10.38;;;7.00;;
37791;SDS011;29527;55.766;37.570;2022-09-21T08:35:55;7.15;;;5.80;;
37791;SDS011;29527;55.766;37.570;2022-09-21T08:38:22;15.23;;;6.90;;
37791;SDS011;29527;55.766;37.570;2022-09-21T08:40:48;9.73;;;6.80;;
37791;SDS011;29527;55.766;37.570;2022-09-21T08:43:32;15.35;;;8.23;;
37791;SDS011;29527;55.766;37.570;2022-09-21T08:46:04;10.20;;;7.40;;
37791;SDS011;29527;55.766;37.570;2022-09-21T08:48:35;10.68;;;7.13;;
37791;SDS011;29527;55.766;37.570;2022-09-21T08:51:08;10.05;;;6.60;;
37791;SDS011;29527;55.766;37.570;2022-09-21T08:53:39;9.50;;;6.20;;
37791;SDS011;29527;55.766;37.570;2022-09-21T08:56:09;7.43;;;4.95;;
37791;SDS011;29527;55.766;37.570;2022-09-21T08:58:37;7.45;;;5.55;;
37791;SDS011;29527;55.766;37.570;2022-09-21T09:06:23;8.43;;;5.20;;
37791;SDS011;29527;55.766;37.570;2022-09-21T09:11:36;7.88;;;4.45;;
37791;SDS011;29527;55.766;37.570;2022-09-21T09:16:52;7.32;;;5.53;;
37791;SDS011;29527;55.766;37.570;2022-09-21T09:19:48;9.57;;;5.63;;
37791;SDS011;29527;55.766;37.570;2022-09-21T09:22:22;8.63;;;5.50;;
37791;SDS011;29527;55.766;37.570;2022-09-21T09:25:04;6.68;;;5.13;;
37791;SDS011;29527;55.766;37.570;2022-09-21T09:27:40;6.80;;;5.25;;
37791;SDS011;29527;55.766;37.570;2022-09-21T09:30:13;8.20;;;4.93;;
37791;SDS011;29527;55.766;37.570;2022-09-21T09:38:44;8.52;;;4.90;;
37791;SDS011;29527;55.766;37.570;2022-09-21T09:40:59;6.38;;;4.80;;
37791;SDS011;29527;55.766;37.570;2022-09-21T09:43:52;5.57;;;4.68;;
37791;SDS011;29527;55.766;37.570;2022-09-21T09:51:28;8.03;;;4.30;;
37791;SDS011;29527;55.766;37.570;2022-09-21T09:53:53;5.90;;;3.63;;
37791;SDS011;29527;55.766;37.570;2022-09-21T09:56:23;6.05;;;3.83;;
37791;SDS011;29527;55.766;37.570;2022-09-21T09:58:51;5.47;;;4.22;;
37791;SDS011;29527;55.766;37.570;2022-09-21T10:01:39;4.68;;;4.13;;
37791;SDS011;29527;55.766;37.570;2022-09-21T10:04:13;5.50;;;3.72;;
37791;SDS011;29527;55.766;37.570;2022-09-21T10:06:41;7.85;;;4.68;;
37791;SDS011;29527;55.766;37.570;2022-09-21T10:09:16;4.10;;;3.70;;
37791;SDS011;29527;55.766;37.570;2022-09-21T10:11:54;4.20;;;3.33;;
37791;SDS011;29527;55.766;37.570;2022-09-21T10:14:23;8.10;;;3.40;;
37791;SDS011;29527;55.766;37.570;2022-09-21T10:16:51;4.82;;;2.88;;
37791;SDS011;29527;55.766;37.570;2022-09-21T10:19:20;7.22;;;3.20;;
37791;SDS011;29527;55.766;37.570;2022-09-21T10:21:56;4.13;;;2.65;;
37791;SDS011;29527;55.766;37.570;2022-09-21T10:24:56;6.13;;;2.47;;
37791;SDS011;29527;55.766;37.570;2022-09-21T10:27:19;1.50;;;1.40;;
37791;SDS011;29527;55.766;37.570;2022-09-21T10:29:49;1.38;;;1.13;;
37791;SDS011;29527;55.766;37.570;2022-09-21T10:34:42;2.40;;;1.48;;
37791;SDS011;29527;55.766;37.570;2022-09-21T10:37:26;2.22;;;1.13;;
37791;SDS011;29527;55.766;37.570;2022-09-21T10:39:54;4.05;;;1.40;;
37791;SDS011;29527;55.766;37.570;2022-09-21T10:42:21;2.20;;;2.00;;
37791;SDS011;29527;55.766;37.570;2022-09-21T10:44:51;4.20;;;2.75;;
37791;SDS011;29527;55.766;37.570;2022-09-21T10:47:35;5.82;;;2.30;;
37791;SDS011;29527;55.766;37.570;2022-09-21T10:50:02;3.75;;;2.28;;
37791;SDS011;29527;55.766;37.570;2022-09-21T10:52:50;2.70;;;2.28;;
37791;SDS011;29527;55.766;37.570;2022-09-21T10:55:22;4.03;;;2.28;;
37791;SDS011;29527;55.766;37.570;2022-09-21T10:57:49;4.80;;;2.60;;
37791;SDS011;29527;55.766;37.570;2022-09-21T11:02:54;4.72;;;2.95;;
37791;SDS011;29527;55.766;37.570;2022-09-21T11:05:41;4.30;;;3.20;;
37791;SDS011;29527;55.766;37.570;2022-09-21T11:10:56;4.75;;;3.35;;
37791;SDS011;29527;55.766;37.570;2022-09-21T11:14:06;4.13;;;3.00;;
37791;SDS011;29527;55.766;37.570;2022-09-21T11:16:55;4.40;;;2.95;;
37791;SDS011;29527;55.766;37.570;2022-09-21T11:19:30;5.70;;;2.92;;
37791;SDS011;29527;55.766;37.570;2022-09-21T11:22:05;2.70;;;2.50;;
37791;SDS011;29527;55.766;37.570;2022-09-21T11:32:25;4.90;;;3.17;;
37791;SDS011;29527;55.766;37.570;2022-09-21T11:46:51;7.55;;;3.60;;
37791;SDS011;29527;55.766;37.570;2022-09-21T11:52:27;3.57;;;3.13;;
37791;SDS011;29527;55.766;37.570;2022-09-21T11:57:42;4.53;;;3.10;;
37791;SDS011;29527;55.766;37.570;2022-09-21T12:00:25;8.38;;;3.10;;
37791;SDS011;29527;55.766;37.570;2022-09-21T12:14:13;5.03;;;3.13;;
37791;SDS011;29527;55.766;37.570;2022-09-21T12:22:01;3.83;;;3.17;;
37791;SDS011;29527;55.766;37.570;2022-09-21T12:24:39;6.45;;;3.28;;
37791;SDS011;29527;55.766;37.570;2022-09-21T12:30:02;5.85;;;2.50;;
37791;SDS011;29527;55.766;37.570;2022-09-21T12:35:23;6.47;;;2.90;;
37791;SDS011;29527;55.766;37.570;2022-09-21T12:38:04;5.40;;;3.13;;
37791;SDS011;29527;55.766;37.570;2022-09-21T12:40:39;5.72;;;3.00;;
37791;SDS011;29527;55.766;37.570;2022-09-21T12:43:27;4.55;;;2.85;;
37791;SDS011;29527;55.766;37.570;2022-09-21T12:46:01;4.53;;;3.42;;
37791;SDS011;29527;55.766;37.570;2022-09-21T12:48:32;5.82;;;3.60;;
37791;SDS011;29527;55.766;37.570;2022-09-21T12:53:49;3.08;;;2.75;;
37791;SDS011;29527;55.766;37.570;2022-09-21T13:06:42;6.68;;;3.60;;
37791;SDS011;29527;55.766;37.570;2022-09-21T13:09:28;7.85;;;3.50;;
37791;SDS011;29527;55.766;37.570;2022-09-21T13:12:05;4.18;;;3.25;;
37791;SDS011;29527;55.766;37.570;2022-09-21T13:14:41;3.97;;;3.10;;
37791;SDS011;29527;55.766;37.570;2022-09-21T13:17:25;5.15;;;3.38;;
37791;SDS011;29527;55.766;37.570;2022-09-21T13:19:58;6.82;;;3.63;;
37791;SDS011;29527;55.766;37.570;2022-09-21T13:22:29;9.13;;;3.72;;
37791;SDS011;29527;55.766;37.570;2022-09-21T13:25:03;5.68;;;3.42;;
37791;SDS011;29527;55.766;37.570;2022-09-21T13:54:23;6.28;;;3.22;;
37791;SDS011;29527;55.766;37.570;2022-09-21T13:59:46;5.80;;;3.08;;
37791;SDS011;29527;55.766;37.570;2022-09-21T14:04:55;7.38;;;2.88;;
37791;SDS011;29527;55.766;37.570;2022-09-21T14:07:29;6.22;;;3.35;;
37791;SDS011;29527;55.766;37.570;2022-09-21T14:09:58;3.28;;;2.70;;
37791;SDS011;29527;55.766;37.570;2022-09-21T14:12:31;6.80;;;3.10;;
37791;SDS011;29527;55.766;37.570;2022-09-21T14:18:07;4.30;;;3.10;;
37791;SDS011;29527;55.766;37.570;2022-09-21T14:20:33;4.65;;;3.03;;
37791;SDS011;29527;55.766;37.570;2022-09-21T14:25:52;5.40;;;2.90;;
37791;SDS011;29527;55.766;37.570;2022-09-21T14:29:04;6.80;;;2.90;;
37791;SDS011;29527;55.766;37.570;2022-09-21T14:31:35;4.40;;;3.03;;
37791;SDS011;29527;55.766;37.570;2022-09-21T14:34:03;6.53;;;3.40;;
37791;SDS011;29527;55.766;37.570;2022-09-21T14:36:42;4.25;;;3.10;;
37791;SDS011;29527;55.766;37.570;2022-09-21T14:39:31;5.13;;;2.97;;
37791;SDS011;29527;55.766;37.570;2022-09-21T14:42:01;7.10;;;2.92;;
37791;SDS011;29527;55.766;37.570;2022-09-21T14:44:36;6.07;;;3.03;;
37791;SDS011;29527;55.766;37.570;2022-09-21T14:47:08;7.38;;;3.08;;
37791;SDS011;29527;55.766;37.570;2022-09-21T15:07:08;5.60;;;3.92;;
37791;SDS011;29527;55.766;37.570;2022-09-21T15:13:08;9.95;;;3.25;;
37791;SDS011;29527;55.766;37.570;2022-09-21T15:15:47;4.57;;;3.30;;
37791;SDS011;29527;55.766;37.570;2022-09-21T15:18:41;4.05;;;2.92;;
37791;SDS011;29527;55.766;37.570;2022-09-21T15:21:22;4.60;;;3.10;;
37791;SDS011;29527;55.766;37.570;2022-09-21T15:23:51;5.38;;;3.47;;
37791;SDS011;29527;55.766;37.570;2022-09-21T15:26:22;7.85;;;3.22;;
37791;SDS011;29527;55.766;37.570;2022-09-21T15:28:54;6.22;;;3.35;;
37791;SDS011;29527;55.766;37.570;2022-09-21T15:31:22;5.10;;;2.83;;
37791;SDS011;29527;55.766;37.570;2022-09-21T15:33:48;5.68;;;3.38;;
37791;SDS011;29527;55.766;37.570;2022-09-21T15:36:23;6.72;;;3.35;;
37791;SDS011;29527;55.766;37.570;2022-09-21T15:38:51;6.38;;;3.85;;
37791;SDS011;29527;55.766;37.570;2022-09-21T15:44:11;6.00;;;4.18;;
37791;SDS011;29527;55.766;37.570;2022-09-21T15:46:46;6.03;;;3.75;;
37791;SDS011;29527;55.766;37.570;2022-09-21T15:49:15;6.53;;;3.80;;
37791;SDS011;29527;55.766;37.570;2022-09-21T15:51:49;13.40;;;4.35;;
37791;SDS011;29527;55.766;37.570;2022-09-21T15:56:53;7.85;;;4.13;;
37791;SDS011;29527;55.766;37.570;2022-09-21T15:59:19;10.73;;;3.88;;
37791;SDS011;29527;55.766;37.570;2022-09-21T16:01:48;11.65;;;4.75;;
37791;SDS011;29527;55.766;37.570;2022-09-21T16:04:18;10.15;;;4.03;;
37791;SDS011;29527;55.766;37.570;2022-09-21T16:06:47;7.50;;;3.88;;
37791;SDS011;29527;55.766;37.570;2022-09-21T16:09:28;10.30;;;3.78;;
37791;SDS011;29527;55.766;37.570;2022-09-21T16:12:22;5.90;;;3.72;;
37791;SDS011;29527;55.766;37.570;2022-09-21T16:14:53;7.28;;;3.53;;
37791;SDS011;29527;55.766;37.570;2022-09-21T16:17:28;5.05;;;4.50;;
37791;SDS011;29527;55.766;37.570;2022-09-21T16:22:30;5.07;;;3.50;;
37791;SDS011;29527;55.766;37.570;2022-09-21T16:28:05;7.18;;;4.20;;
37791;SDS011;29527;55.766;37.570;2022-09-21T16:30:53;7.95;;;3.80;;
37791;SDS011;29527;55.766;37.570;2022-09-21T16:33:40;6.60;;;3.88;;
37791;SDS011;29527;55.766;37.570;2022-09-21T16:38:58;6.93;;;4.00;;
37791;SDS011;29527;55.766;37.570;2022-09-21T16:41:28;7.22;;;4.30;;
37791;SDS011;29527;55.766;37.570;2022-09-21T16:43:59;6.25;;;4.05;;
37791;SDS011;29527;55.766;37.570;2022-09-21T16:46:25;7.72;;;4.13;;
37791;SDS011;29527;55.766;37.570;2022-09-21T16:48:52;4.60;;;3.45;;
37791;SDS011;29527;55.766;37.570;2022-09-21T16:51:19;6.57;;;4.00;;
37791;SDS011;29527;55.766;37.570;2022-09-21T16:53:50;6.43;;;3.95;;
37791;SDS011;29527;55.766;37.570;2022-09-21T16:56:15;7.78;;;4.30;;
37791;SDS011;29527;55.766;37.570;2022-09-21T16:58:42;6.50;;;3.90;;
37791;SDS011;29527;55.766;37.570;2022-09-21T17:01:10;5.22;;;3.90;;
37791;SDS011;29527;55.766;37.570;2022-09-21T17:03:40;7.70;;;4.13;;
37791;SDS011;29527;55.766;37.570;2022-09-21T17:06:13;6.40;;;4.13;;
37791;SDS011;29527;55.766;37.570;2022-09-21T17:08:41;8.02;;;4.15;;
37791;SDS011;29527;55.766;37.570;2022-09-21T17:11:07;7.68;;;4.35;;
37791;SDS011;29527;55.766;37.570;2022-09-21T17:13:32;7.25;;;4.15;;
37791;SDS011;29527;55.766;37.570;2022-09-21T17:15:57;8.70;;;4.30;;
37791;SDS011;29527;55.766;37.570;2022-09-21T17:18:23;6.55;;;4.28;;
37791;SDS011;29527;55.766;37.570;2022-09-21T17:20:49;4.70;;;4.05;;
37791;SDS011;29527;55.766;37.570;2022-09-21T17:23:15;7.82;;;4.32;;
37791;SDS011;29527;55.766;37.570;2022-09-21T17:25:40;5.88;;;4.18;;
37791;SDS011;29527;55.766;37.570;2022-09-21T17:28:16;9.82;;;4.70;;
37791;SDS011;29527;55.766;37.570;2022-09-21T17:30:49;8.25;;;3.10;;
37791;SDS011;29527;55.766;37.570;2022-09-21T17:33:15;3.92;;;2.33;;
37791;SDS011;29527;55.766;37.570;2022-09-21T17:35:46;4.20;;;2.47;;
37791;SDS011;29527;55.766;37.570;2022-09-21T17:38:14;4.70;;;2.20;;
37791;SDS011;29527;55.766;37.570;2022-09-21T17:40:41;3.97;;;2.55;;
37791;SDS011;29527;55.766;37.570;2022-09-21T17:45:56;3.25;;;2.30;;
37791;SDS011;29527;55.766;37.570;2022-09-21T17:48:25;4.88;;;2.45;;
37791;SDS011;29527;55.766;37.570;2022-09-21T17:50:51;3.40;;;2.28;;
37791;SDS011;29527;55.766;37.570;2022-09-21T17:53:17;4.57;;;2.60;;
37791;SDS011;29527;55.766;37.570;2022-09-21T17:56:07;4.38;;;2.38;;
37791;SDS011;29527;55.766;37.570;2022-09-21T18:01:33;5.35;;;2.08;;
37791;SDS011;29527;55.766;37.570;2022-09-21T18:06:28;4.60;;;2.70;;
37791;SDS011;29527;55.766;37.570;2022-09-21T18:08:54;6.53;;;2.58;;
37791;SDS011;29527;55.766;37.570;2022-09-21T18:14:03;5.32;;;2.35;;
37791;SDS011;29527;55.766;37.570;2022-09-21T18:25:15;3.80;;;2.33;;
37791;SDS011;29527;55.766;37.570;2022-09-21T18:27:47;5.65;;;3.15;;